Estestar — 3ECR8 — position and weather

sailwx.info

Track history (hours):
 
Tides and Currents Weather Stations Pressure Air Temp Water Temp Dewpoint Dewpoint Depression Visibility Wind Speed Wind Dir Waves Ship Positions

Estestar

Last reported at 2017-Jun-28 22:20 UTC. Time now 2017-Jun-28 22:51 UTC.
Position N 44°30' E 012°38'.

Length 133 m; draft 4.5 m.

Type: Cargo ship. MMSI: 371448000.

Date/timePositionNaut miles runAvg speedWind from/ knotsBaromVisibWave heightAir tempDewpointWater temp
2017-Jun-28 22:20N 44°30' E 012°38'0 0.1
2017-Jun-28 21:56N 44°30' E 012°38'0 0.0
2017-Jun-28 21:26N 44°30' E 012°38'0 0.0
2017-Jun-28 20:59N 44°30' E 012°38'0 0.1
2017-Jun-28 20:29N 44°30' E 012°39'0 0.1
2017-Jun-28 19:59N 44°30' E 012°39'0 0.1
2017-Jun-28 19:23N 44°30' E 012°39'0 0.0
2017-Jun-28 18:47N 44°30' E 012°39'0 0.2
2017-Jun-28 18:17N 44°30' E 012°39'0 0.0
2017-Jun-28 17:53N 44°30' E 012°39'0 0.2
2017-Jun-28 17:29N 44°30' E 012°39'0 0.1
2017-Jun-28 16:32N 44°30' E 012°39'0 0.0
2017-Jun-28 16:11N 44°30' E 012°39'0 0.2
2017-Jun-28 15:53N 44°30' E 012°39'0 0.3
2017-Jun-28 15:12N 44°30' E 012°38'0 0.0
2017-Jun-28 14:57N 44°30' E 012°38'0 0.0
2017-Jun-28 14:27N 44°30' E 012°38'0 0.0
2017-Jun-28 13:24N 44°30' E 012°39'0 0.1
2017-Jun-28 12:54N 44°30' E 012°38'0 0.1
2017-Jun-28 12:18N 44°30' E 012°38'0 0.1
2017-Jun-28 12:00N 44°30' E 012°38'0 0.0
2017-Jun-28 11:30N 44°30' E 012°38'0 0.0
2017-Jun-28 10:57N 44°30' E 012°38'0 0.0
2017-Jun-28 10:28N 44°30' E 012°38'0 0.0
2017-Jun-28 09:36N 44°30' E 012°38'0 0.1
2017-Jun-28 09:30N 44°30' E 012°38'0 0.0
2017-Jun-28 08:51N 44°30' E 012°38'0 0.0
2017-Jun-28 08:24N 44°30' E 012°38'0 0.0
2017-Jun-28 08:00N 44°30' E 012°38'0 0.1
2017-Jun-28 07:30N 44°30' E 012°38'0 0.2
2017-Jun-28 07:00N 44°30' E 012°38'4 8.8
2017-Jun-28 06:30N 44°30' E 012°32'10 9.4
2017-Jun-28 05:29N 44°30' E 012°19'3 6.7
2017-Jun-28 05:00N 44°28' E 012°15'1 2.6
2017-Jun-28 04:30N 44°27' E 012°15'0 0.0
2017-Jun-28 03:57N 44°27' E 012°15'0 0.0
2017-Jun-28 03:27N 44°27' E 012°15'0 0.0
2017-Jun-27 21:48N 44°27' E 012°15'0 0.0
2017-Jun-27 20:21N 44°27' E 012°15'0 0.0
2017-Jun-27 19:48N 44°27' E 012°15'0 0.0
2017-Jun-27 19:27N 44°27' E 012°15'0 0.0
2017-Jun-27 18:57N 44°27' E 012°15'0 0.0
2017-Jun-27 15:15N 44°27' E 012°15'0 0.0
2017-Jun-27 15:00N 44°27' E 012°15'0 0.0
2017-Jun-27 14:21N 44°27' E 012°15'0 0.0
2017-Jun-27 13:27N 44°27' E 012°15'0 0.0
2017-Jun-27 09:21N 44°27' E 012°15'0 0.0
2017-Jun-27 09:00N 44°27' E 012°15'0 0.0
2017-Jun-27 02:00N 44°27' E 012°15'0 0.0
2017-Jun-27 00:51N 44°27' E 012°15'0 0.0
2017-Jun-27 00:30N 44°27' E 012°15'0 0.0
2017-Jun-26 23:54N 44°27' E 012°15'0 0.0
2017-Jun-26 23:03N 44°27' E 012°15'0 0.0
2017-Jun-26 22:57N 44°27' E 012°15'0 0.0
2017-Jun-26 22:27N 44°27' E 012°15'0 0.0
2017-Jun-26 21:57N 44°27' E 012°15'0 0.0
2017-Jun-26 21:00N 44°27' E 012°15'0 0.0
2017-Jun-26 20:21N 44°27' E 012°15'0 0.0
2017-Jun-26 20:00N 44°27' E 012°15'0 0.0
2017-Jun-26 19:30N 44°27' E 012°15'0 0.0
2017-Jun-26 17:48N 44°27' E 012°15'0 0.0
2017-Jun-26 17:09N 44°27' E 012°15'0 0.0
2017-Jun-26 16:48N 44°27' E 012°15'0 0.0
2017-Jun-26 08:51N 44°27' E 012°15'0 0.1
2017-Jun-26 06:36N 44°27' E 012°15'2 3.8
2017-Jun-26 06:12N 44°28' E 012°15'2 7.2
2017-Jun-26 05:59N 44°29' E 012°16'5 6.4
2017-Jun-26 05:13N 44°30' E 012°23'1 3.9
2017-Jun-26 04:57N 44°30' E 012°25'0 0.3
2017-Jun-26 03:06N 44°30' E 012°25'0 0.0
2017-Jun-26 02:36N 44°30' E 012°25'0 0.0
2017-Jun-26 02:18N 44°30' E 012°25'0 0.1
2017-Jun-26 01:51N 44°31' E 012°25'8 4.2
2017-Jun-26 00:01N 44°29' E 012°36'829.7
2017-Jun-25 23:45N 44°31' E 012°25'0 0.0
2017-Jun-25 23:27N 44°31' E 012°25'0 0.0
2017-Jun-25 22:51N 44°31' E 012°25'0 0.0
2017-Jun-25 22:15N 44°31' E 012°25'0 0.0
2017-Jun-25 21:57N 44°31' E 012°25'0 0.0
2017-Jun-25 21:15N 44°31' E 012°25'0 0.0
2017-Jun-25 20:51N 44°31' E 012°25'0 0.0
2017-Jun-25 20:27N 44°31' E 012°25'0 0.0
2017-Jun-25 20:00N 44°31' E 012°25'0 0.0
2017-Jun-25 19:30N 44°31' E 012°25'0 0.0
2017-Jun-25 19:00N 44°31' E 012°25'0 0.0
2017-Jun-25 18:30N 44°31' E 012°25'0 0.0
2017-Jun-25 17:54N 44°31' E 012°25'0 0.0
2017-Jun-25 17:30N 44°31' E 012°25'0 0.1
2017-Jun-25 16:54N 44°31' E 012°25'0 0.0
2017-Jun-25 16:27N 44°31' E 012°25'0 0.2
2017-Jun-25 16:00N 44°30' E 012°25'3 6.6
2017-Jun-25 15:30N 44°30' E 012°30'5 9.4
2017-Jun-25 15:00N 44°29' E 012°36'5 9.4
2017-Jun-25 14:30N 44°27' E 012°42'9 9.2
2017-Jun-25 13:30N 44°22' E 012°54'5 9.8
2017-Jun-25 12:56N 44°20' E 013°01'5 9.7
2017-Jun-25 12:26N 44°18' E 013°07'4 9.7
2017-Jun-25 12:00N 44°18' E 013°13'5 9.7
2017-Jun-25 11:30N 44°15' E 013°18'510.1
2017-Jun-25 11:00N 44°12' E 013°24'510.2
2017-Jun-25 10:30N 44°09' E 013°30'510.2
2017-Jun-25 10:00N 44°06' E 013°36'510.1
2017-Jun-25 09:30N 44°03' E 013°42'510.2
2017-Jun-25 09:00N 44°00' E 013°47'510.2
2017-Jun-25 08:30N 43°58' E 013°53'510.2
2017-Jun-25 08:00N 43°54' E 013°58'5 9.7
2017-Jun-25 07:30N 43°51' E 014°03'510.1
2017-Jun-25 07:00N 43°47' E 014°08'510.4
2017-Jun-25 06:30N 43°43' E 014°12'510.6
2017-Jun-25 06:00N 43°38' E 014°16'510.4
2017-Jun-25 05:30N 43°34' E 014°20'510.6
2017-Jun-25 05:00N 43°30' E 014°25'510.6
2017-Jun-25 04:30N 43°27' E 014°31'510.4
2017-Jun-25 04:00N 43°23' E 014°36'510.4
2017-Jun-25 03:30N 43°19' E 014°41'510.5
2017-Jun-25 02:59N 43°16' E 014°46'510.5
2017-Jun-25 02:30N 43°12' E 014°52'510.4
2017-Jun-25 01:59N 43°09' E 014°57'510.4
2017-Jun-25 01:30N 43°05' E 015°02'510.2
2017-Jun-25 01:00N 43°02' E 015°07'510.2
2017-Jun-25 00:29N 42°58' E 015°12'23710.1
2017-Jun-24 01:03N 40°11' E 018°58'102 9.7
2017-Jun-23 14:35N 38°40' E 019°57'1 9.5
2017-Jun-23 14:26N 38°39' E 019°58'200 7.2
2017-Jun-22 10:44N 36°53' E 023°32'210.2
2017-Jun-22 10:30N 36°54' E 023°35'5 9.9
2017-Jun-22 10:00N 36°57' E 023°40'510.2
2017-Jun-22 09:29N 37°01' E 023°45'2410.6
2017-Jun-22 07:12N 37°18' E 024°06'310.8
2017-Jun-22 06:57N 37°20' E 024°08'  
Track history (hours):
 
Tides and Currents Weather Stations Pressure Air Temp Water Temp Dewpoint Dewpoint Depression Visibility Wind Speed Wind Dir Waves Ship Positions

Estestar

Last reported at 2017-Jun-28 22:20 UTC. Time now 2017-Jun-28 22:51 UTC.
Position N 44°30' E 012°38'.

Length 133 m; draft 4.5 m.

Type: Cargo ship. MMSI: 371448000.

Date/timePositionNaut miles runAvg speedWind from/ knotsBaromVisibWave heightAir tempDewpointWater temp
2017-Jun-28 22:20N 44°30' E 012°38'0 0.1
2017-Jun-28 21:56N 44°30' E 012°38'0 0.0
2017-Jun-28 21:26N 44°30' E 012°38'0 0.0
2017-Jun-28 20:59N 44°30' E 012°38'0 0.1
2017-Jun-28 20:29N 44°30' E 012°39'0 0.1
2017-Jun-28 19:59N 44°30' E 012°39'0 0.1
2017-Jun-28 19:23N 44°30' E 012°39'0 0.0
2017-Jun-28 18:47N 44°30' E 012°39'0 0.2
2017-Jun-28 18:17N 44°30' E 012°39'0 0.0
2017-Jun-28 17:53N 44°30' E 012°39'0 0.2
2017-Jun-28 17:29N 44°30' E 012°39'0 0.1
2017-Jun-28 16:32N 44°30' E 012°39'0 0.0
2017-Jun-28 16:11N 44°30' E 012°39'0 0.2
2017-Jun-28 15:53N 44°30' E 012°39'0 0.3
2017-Jun-28 15:12N 44°30' E 012°38'0 0.0
2017-Jun-28 14:57N 44°30' E 012°38'0 0.0
2017-Jun-28 14:27N 44°30' E 012°38'0 0.0
2017-Jun-28 13:24N 44°30' E 012°39'0 0.1
2017-Jun-28 12:54N 44°30' E 012°38'0 0.1
2017-Jun-28 12:18N 44°30' E 012°38'0 0.1
2017-Jun-28 12:00N 44°30' E 012°38'0 0.0
2017-Jun-28 11:30N 44°30' E 012°38'0 0.0
2017-Jun-28 10:57N 44°30' E 012°38'0 0.0
2017-Jun-28 10:28N 44°30' E 012°38'0 0.0
2017-Jun-28 09:36N 44°30' E 012°38'0 0.1
2017-Jun-28 09:30N 44°30' E 012°38'0 0.0
2017-Jun-28 08:51N 44°30' E 012°38'0 0.0
2017-Jun-28 08:24N 44°30' E 012°38'0 0.0
2017-Jun-28 08:00N 44°30' E 012°38'0 0.1
2017-Jun-28 07:30N 44°30' E 012°38'0 0.2
2017-Jun-28 07:00N 44°30' E 012°38'4 8.8
2017-Jun-28 06:30N 44°30' E 012°32'10 9.4
2017-Jun-28 05:29N 44°30' E 012°19'3 6.7
2017-Jun-28 05:00N 44°28' E 012°15'1 2.6
2017-Jun-28 04:30N 44°27' E 012°15'0 0.0
2017-Jun-28 03:57N 44°27' E 012°15'0 0.0
2017-Jun-28 03:27N 44°27' E 012°15'0 0.0
2017-Jun-27 21:48N 44°27' E 012°15'0 0.0
2017-Jun-27 20:21N 44°27' E 012°15'0 0.0
2017-Jun-27 19:48N 44°27' E 012°15'0 0.0
2017-Jun-27 19:27N 44°27' E 012°15'0 0.0
2017-Jun-27 18:57N 44°27' E 012°15'0 0.0
2017-Jun-27 15:15N 44°27' E 012°15'0 0.0
2017-Jun-27 15:00N 44°27' E 012°15'0 0.0
2017-Jun-27 14:21N 44°27' E 012°15'0 0.0
2017-Jun-27 13:27N 44°27' E 012°15'0 0.0
2017-Jun-27 09:21N 44°27' E 012°15'0 0.0
2017-Jun-27 09:00N 44°27' E 012°15'0 0.0
2017-Jun-27 02:00N 44°27' E 012°15'0 0.0
2017-Jun-27 00:51N 44°27' E 012°15'0 0.0
2017-Jun-27 00:30N 44°27' E 012°15'0 0.0
2017-Jun-26 23:54N 44°27' E 012°15'0 0.0
2017-Jun-26 23:03N 44°27' E 012°15'0 0.0
2017-Jun-26 22:57N 44°27' E 012°15'0 0.0
2017-Jun-26 22:27N 44°27' E 012°15'0 0.0
2017-Jun-26 21:57N 44°27' E 012°15'0 0.0
2017-Jun-26 21:00N 44°27' E 012°15'0 0.0
2017-Jun-26 20:21N 44°27' E 012°15'0 0.0
2017-Jun-26 20:00N 44°27' E 012°15'0 0.0
2017-Jun-26 19:30N 44°27' E 012°15'0 0.0
2017-Jun-26 17:48N 44°27' E 012°15'0 0.0
2017-Jun-26 17:09N 44°27' E 012°15'0 0.0
2017-Jun-26 16:48N 44°27' E 012°15'0 0.0
2017-Jun-26 08:51N 44°27' E 012°15'0 0.1
2017-Jun-26 06:36N 44°27' E 012°15'2 3.8
2017-Jun-26 06:12N 44°28' E 012°15'2 7.2
2017-Jun-26 05:59N 44°29' E 012°16'5 6.4
2017-Jun-26 05:13N 44°30' E 012°23'1 3.9
2017-Jun-26 04:57N 44°30' E 012°25'0 0.3
2017-Jun-26 03:06N 44°30' E 012°25'0 0.0
2017-Jun-26 02:36N 44°30' E 012°25'0 0.0
2017-Jun-26 02:18N 44°30' E 012°25'0 0.1
2017-Jun-26 01:51N 44°31' E 012°25'8 4.2
2017-Jun-26 00:01N 44°29' E 012°36'829.7
2017-Jun-25 23:45N 44°31' E 012°25'0 0.0
2017-Jun-25 23:27N 44°31' E 012°25'0 0.0
2017-Jun-25 22:51N 44°31' E 012°25'0 0.0
2017-Jun-25 22:15N 44°31' E 012°25'0 0.0
2017-Jun-25 21:57N 44°31' E 012°25'0 0.0
2017-Jun-25 21:15N 44°31' E 012°25'0 0.0
2017-Jun-25 20:51N 44°31' E 012°25'0 0.0
2017-Jun-25 20:27N 44°31' E 012°25'0 0.0
2017-Jun-25 20:00N 44°31' E 012°25'0 0.0
2017-Jun-25 19:30N 44°31' E 012°25'0 0.0
2017-Jun-25 19:00N 44°31' E 012°25'0 0.0
2017-Jun-25 18:30N 44°31' E 012°25'0 0.0
2017-Jun-25 17:54N 44°31' E 012°25'0 0.0
2017-Jun-25 17:30N 44°31' E 012°25'0 0.1
2017-Jun-25 16:54N 44°31' E 012°25'0 0.0
2017-Jun-25 16:27N 44°31' E 012°25'0 0.2
2017-Jun-25 16:00N 44°30' E 012°25'3 6.6
2017-Jun-25 15:30N 44°30' E 012°30'5 9.4
2017-Jun-25 15:00N 44°29' E 012°36'5 9.4
2017-Jun-25 14:30N 44°27' E 012°42'9 9.2
2017-Jun-25 13:30N 44°22' E 012°54'5 9.8
2017-Jun-25 12:56N 44°20' E 013°01'5 9.7
2017-Jun-25 12:26N 44°18' E 013°07'4 9.7
2017-Jun-25 12:00N 44°18' E 013°13'5 9.7
2017-Jun-25 11:30N 44°15' E 013°18'510.1
2017-Jun-25 11:00N 44°12' E 013°24'510.2
2017-Jun-25 10:30N 44°09' E 013°30'510.2
2017-Jun-25 10:00N 44°06' E 013°36'510.1
2017-Jun-25 09:30N 44°03' E 013°42'510.2
2017-Jun-25 09:00N 44°00' E 013°47'510.2
2017-Jun-25 08:30N 43°58' E 013°53'510.2
2017-Jun-25 08:00N 43°54' E 013°58'5 9.7
2017-Jun-25 07:30N 43°51' E 014°03'510.1
2017-Jun-25 07:00N 43°47' E 014°08'510.4
2017-Jun-25 06:30N 43°43' E 014°12'510.6
2017-Jun-25 06:00N 43°38' E 014°16'510.4
2017-Jun-25 05:30N 43°34' E 014°20'510.6
2017-Jun-25 05:00N 43°30' E 014°25'510.6
2017-Jun-25 04:30N 43°27' E 014°31'510.4
2017-Jun-25 04:00N 43°23' E 014°36'510.4
2017-Jun-25 03:30N 43°19' E 014°41'510.5
2017-Jun-25 02:59N 43°16' E 014°46'510.5
2017-Jun-25 02:30N 43°12' E 014°52'510.4
2017-Jun-25 01:59N 43°09' E 014°57'510.4
2017-Jun-25 01:30N 43°05' E 015°02'510.2
2017-Jun-25 01:00N 43°02' E 015°07'510.2
2017-Jun-25 00:29N 42°58' E 015°12'23710.1
2017-Jun-24 01:03N 40°11' E 018°58'102 9.7
2017-Jun-23 14:35N 38°40' E 019°57'1 9.5
2017-Jun-23 14:26N 38°39' E 019°58'200 7.2
2017-Jun-22 10:44N 36°53' E 023°32'210.2
2017-Jun-22 10:30N 36°54' E 023°35'5 9.9
2017-Jun-22 10:00N 36°57' E 023°40'510.2
2017-Jun-22 09:29N 37°01' E 023°45'2410.6
2017-Jun-22 07:12N 37°18' E 024°06'310.8
2017-Jun-22 06:57N 37°20' E 024°08'  

Dump ship's entire track history